Time;durP1;ratioP1;P1;durP2;ratioP2;P2;SDS_P1;SDS_P2;PMS_P1;PMS_P2;Temp;Humidity;BMP_temperature;BMP_pressure;BME280_temperature;BME280_humidity;BME280_pressure;Samples;Min_cycle;Max_cycle;Signal;HPM_P1;HPM_P2
2023/08/15 00:03:13;;;;;;;20.92;6.78;;;;;;;24.68;95.11;100766.14;5300027;54;1140820;-64
2023/08/15 00:08:19;;;;;;;8.98;5.75;;;;;;;24.54;95.40;100765.80;5279606;54;1141082;-64
2023/08/15 00:13:24;;;;;;;13.80;6.22;;;;;;;24.39;96.37;100757.86;5279993;54;1138865;-65
2023/08/15 00:18:30;;;;;;;12.05;6.60;;;;;;;24.31;97.10;100758.53;5300304;54;1140900;-66
2023/08/15 00:23:36;;;;;;;14.67;7.63;;;;;;;24.21;97.65;100752.14;5298763;54;1220089;-64
2023/08/15 00:28:42;;;;;;;12.33;7.30;;;;;;;24.22;98.07;100755.67;5279469;54;1140897;-65
2023/08/15 00:33:47;;;;;;;12.30;8.53;;;;;;;24.31;99.32;100758.53;5279513;54;1141086;-64
2023/08/15 00:38:53;;;;;;;13.88;8.68;;;;;;;24.46;100.00;100761.39;5243090;55;1141114;-64
2023/08/15 00:43:59;;;;;;;15.50;8.50;;;;;;;24.54;100.00;100757.17;5187299;55;1142955;-65
2023/08/15 00:49:06;;;;;;;16.17;9.63;;;;;;;24.57;99.89;100761.34;5186756;55;1240387;-64
2023/08/15 00:54:12;;;;;;;12.03;7.85;;;;;;;24.57;99.89;100759.98;5210404;55;1140868;-64
2023/08/15 00:59:17;;;;;;;10.03;8.63;;;;;;;24.64;99.93;100759.98;5189527;55;1141145;-64
2023/08/15 01:04:23;;;;;;;18.62;9.15;;;;;;;24.67;99.79;100756.36;5189932;55;1140876;-64
2023/08/15 01:09:29;;;;;;;14.30;8.13;;;;;;;24.65;99.58;100763.84;5190217;55;1140813;-67
2023/08/15 01:14:39;;;;;;;12.10;8.13;;;;;;;24.64;99.98;100763.52;5210304;55;1140567;-64
2023/08/15 01:19:50;;;;;;;17.98;8.73;;;;;;;24.56;99.64;100763.73;5189968;55;1140862;-66
2023/08/15 01:24:56;;;;;;;13.10;8.10;;;;;;;24.54;99.90;100756.34;5189822;55;1149221;-64
2023/08/15 01:30:02;;;;;;;11.47;8.33;;;;;;;24.57;100.00;100755.09;5299223;55;1140783;-64
2023/08/15 01:35:12;;;;;;;12.75;8.63;;;;;;;24.57;100.00;100761.34;5220378;55;1143045;-65
2023/08/15 01:40:22;;;;;;;13.18;8.28;;;;;;;24.50;99.75;100757.77;5242331;54;1142996;-65
2023/08/15 01:45:29;;;;;;;11.40;8.43;;;;;;;24.37;99.36;100758.57;5298934;54;1140891;-64
2023/08/15 01:50:34;;;;;;;12.85;8.83;;;;;;;24.29;100.00;100764.14;5215695;54;1140904;-64
2023/08/15 01:55:40;;;;;;;11.05;8.35;;;;;;;24.20;100.00;100769.39;5189256;55;1143078;-64
2023/08/15 02:00:46;;;;;;;11.68;8.33;;;;;;;24.15;100.00;100782.66;5206669;55;1143149;-65
2023/08/15 02:05:52;;;;;;;14.65;8.23;;;;;;;24.13;100.00;100781.55;5178733;55;1143081;-65
2023/08/15 02:10:58;;;;;;;10.28;7.75;;;;;;;24.18;100.00;100787.67;5201549;55;1142811;-64
2023/08/15 02:16:04;;;;;;;17.07;8.48;;;;;;;24.16;100.00;100770.30;5283387;54;1142843;-64
2023/08/15 02:21:10;;;;;;;9.15;8.25;;;;;;;24.17;100.00;100769.27;5107054;55;1142933;-65
2023/08/15 02:26:16;;;;;;;14.55;9.38;;;;;;;24.13;100.00;100764.49;5269056;54;1141237;-64
2023/08/15 02:31:25;;;;;;;9.60;8.50;;;;;;;24.01;100.00;100763.38;5229470;54;1143078;-64
2023/08/15 02:36:30;;;;;;;14.95;8.95;;;;;;;23.97;100.00;100760.77;5175973;55;1140851;-64
2023/08/15 02:41:36;;;;;;;15.73;8.77;;;;;;;23.95;100.00;100754.73;5202432;55;1142912;-64
2023/08/15 02:46:42;;;;;;;11.43;8.50;;;;;;;23.89;100.00;100755.01;5268874;55;1142785;-64
2023/08/15 02:51:48;;;;;;;15.83;8.55;;;;;;;23.78;100.00;100748.83;5195819;55;1142873;-65
2023/08/15 02:56:58;;;;;;;9.58;8.00;;;;;;;23.71;100.00;100750.64;5097963;55;1143095;-64
2023/08/15 03:02:01;;;;;;;21.27;7.92;;;;;;;23.68;100.00;100750.52;5272735;54;1140842;-65
2023/08/15 03:07:07;;;;;;;13.83;7.97;;;;;;;23.69;100.00;100762.16;5265824;54;1143102;-64
2023/08/15 03:12:12;;;;;;;17.05;8.78;;;;;;;23.68;100.00;100755.92;5262970;54;1143199;-64
2023/08/15 03:17:19;;;;;;;22.25;9.93;;;;;;;23.64;100.00;100753.83;5285835;54;1143008;-64
2023/08/15 03:22:25;;;;;;;10.83;8.23;;;;;;;23.52;100.00;100750.02;5250897;54;1142951;-65
2023/08/15 03:27:31;;;;;;;14.53;8.45;;;;;;;23.41;100.00;100755.40;5230560;55;1143083;-64
2023/08/15 03:32:36;;;;;;;13.35;9.38;;;;;;;23.32;100.00;100752.55;5208259;55;1143127;-64
2023/08/15 03:37:42;;;;;;;14.23;8.23;;;;;;;23.23;100.00;100736.99;5281546;54;1143185;-64
2023/08/15 03:42:48;;;;;;;10.48;8.33;;;;;;;23.17;100.00;100743.19;5254908;54;1143300;-65
2023/08/15 03:47:53;;;;;;;9.28;8.08;;;;;;;23.15;100.00;100748.78;5233830;54;1143330;-65
2023/08/15 03:52:59;;;;;;;10.05;7.97;;;;;;;23.17;100.00;100755.33;5197068;55;1140764;-64
2023/08/15 03:58:05;;;;;;;11.48;8.88;;;;;;;23.13;100.00;100753.53;5179231;55;1142794;-64
2023/08/15 04:03:11;;;;;;;8.95;7.22;;;;;;;23.12;100.00;100765.87;5185037;55;1142893;-64
2023/08/15 04:08:18;;;;;;;11.97;7.47;;;;;;;23.17;100.00;100770.69;5109823;54;1140903;-64
2023/08/15 04:13:24;;;;;;;13.60;6.67;;;;;;;23.25;100.00;100757.04;5270262;54;1143102;-64
2023/08/15 04:18:47;;;;;;;13.58;6.35;;;;;;;23.27;100.00;100759.87;5279024;54;1143038;-64
2023/08/15 04:23:53;;;;;;;9.68;7.15;;;;;;;23.25;100.00;100745.73;5207008;54;1143218;-64
2023/08/15 04:28:58;;;;;;;9.50;6.53;;;;;;;23.15;100.00;100743.38;5262021;55;1140968;-64
2023/08/15 04:34:05;;;;;;;10.38;5.42;;;;;;;23.07;100.00;100758.34;5263324;54;1140800;-64
2023/08/15 04:39:11;;;;;;;8.23;6.47;;;;;;;23.10;100.00;100788.16;5236748;54;1143024;-64
2023/08/15 04:44:17;;;;;;;8.93;6.30;;;;;;;23.00;100.00;100798.45;5078380;55;1140850;-64
2023/08/15 04:49:23;;;;;;;7.20;6.40;;;;;;;22.92;100.00;100799.91;5012436;56;1140955;-65
2023/08/15 04:54:29;;;;;;;12.53;6.50;;;;;;;22.96;100.00;100802.55;5104131;55;1140996;-64
2023/08/15 04:59:36;;;;;;;7.00;6.08;;;;;;;22.96;100.00;100795.81;5012189;57;1142828;-64
2023/08/15 05:04:42;;;;;;;12.50;7.00;;;;;;;23.07;100.00;100799.33;5000688;57;1140941;-64
2023/08/15 05:09:47;;;;;;;13.62;5.28;;;;;;;23.14;100.00;100790.28;5022808;56;1143071;-64
2023/08/15 05:14:53;;;;;;;5.42;4.92;;;;;;;23.25;100.00;100797.52;5259876;54;1143044;-65
2023/08/15 05:19:59;;;;;;;7.22;5.72;;;;;;;23.33;100.00;100800.94;5235851;55;1252731;-64
2023/08/15 05:25:06;;;;;;;9.43;5.05;;;;;;;23.39;99.25;100801.48;5185309;55;1140659;-64
2023/08/15 05:30:13;;;;;;;12.55;5.50;;;;;;;23.52;98.77;100812.12;5172447;55;1139260;-65
2023/08/15 05:35:19;;;;;;;5.40;4.65;;;;;;;23.75;99.64;100809.98;5199615;55;1140823;-64
2023/08/15 05:40:26;;;;;;;8.13;5.33;;;;;;;23.98;98.51;100815.97;5186550;55;1138711;-65
2023/08/15 05:45:32;;;;;;;8.90;5.47;;;;;;;24.09;97.78;100818.62;5176076;55;1138806;-64
2023/08/15 05:50:38;;;;;;;18.70;5.60;;;;;;;24.24;97.76;100812.59;5244012;54;1138921;-64
2023/08/15 05:55:44;;;;;;;4.95;4.62;;;;;;;24.41;95.71;100810.37;5286980;54;1140939;-64
2023/08/15 06:00:50;;;;;;;5.08;4.60;;;;;;;24.48;94.71;100809.87;5264254;54;1138920;-64
2023/08/15 06:05:57;;;;;;;15.80;5.00;;;;;;;24.70;93.22;100807.87;5238338;54;1138846;-65
2023/08/15 06:11:03;;;;;;;7.53;4.58;;;;;;;24.82;93.33;100811.12;5290656;54;1140981;-65
2023/08/15 06:16:09;;;;;;;6.75;4.92;;;;;;;25.03;92.50;100806.62;5182213;54;1139196;-66
2023/08/15 06:21:15;;;;;;;7.10;4.66;;;;;;;25.21;90.78;100801.41;5065294;56;1138945;-65
2023/08/15 06:26:20;;;;;;;7.67;4.87;;;;;;;25.38;89.65;100804.01;5287464;54;1138983;-65
2023/08/15 06:31:26;;;;;;;13.23;4.83;;;;;;;25.37;88.86;100800.16;5106911;56;1138736;-64
2023/08/15 06:36:33;;;;;;;5.80;5.17;;;;;;;25.53;89.08;100798.38;5270439;54;1140974;-65
2023/08/15 06:41:39;;;;;;;7.63;4.80;;;;;;;25.66;87.20;100801.65;5271203;54;1139547;-64
2023/08/15 06:46:44;;;;;;;6.33;4.37;;;;;;;25.78;86.84;100797.24;5291639;54;1138864;-64
2023/08/15 06:51:50;;;;;;;7.83;5.40;;;;;;;25.91;84.54;100810.23;5245318;54;1138791;-64
2023/08/15 06:56:55;;;;;;;6.25;4.65;;;;;;;26.02;86.03;100810.62;5263313;54;1139043;-64
2023/08/15 07:02:01;;;;;;;5.05;4.65;;;;;;;26.11;85.05;100811.55;5283007;54;1138813;-64
2023/08/15 07:07:09;;;;;;;11.15;4.60;;;;;;;26.18;84.02;100810.98;5203895;54;1138597;-64
2023/08/15 07:12:18;;;;;;;5.53;4.12;;;;;;;26.38;85.58;100814.19;5212173;55;1140761;-64
2023/08/15 07:17:22;;;;;;;6.12;4.37;;;;;;;26.69;85.03;100803.91;5193072;55;1139049;-64
2023/08/15 07:22:28;;;;;;;7.47;4.53;;;;;;;26.94;83.33;100799.39;5216425;54;1138953;-64
2023/08/15 07:27:33;;;;;;;10.40;4.67;;;;;;;27.07;83.83;100795.74;5101605;55;1138703;-65
2023/08/15 07:32:40;;;;;;;6.65;4.60;;;;;;;27.24;82.04;100798.22;5285692;54;1140927;-66
2023/08/15 07:37:45;;;;;;;6.72;5.30;;;;;;;27.46;82.48;100799.51;5275801;54;1138730;-64
2023/08/15 07:42:53;;;;;;;7.15;4.58;;;;;;;27.71;82.07;100801.38;5280055;54;1138757;-64
2023/08/15 07:47:58;;;;;;;4.33;4.03;;;;;;;27.89;79.23;100806.31;5236553;54;1138658;-64
2023/08/15 07:53:04;;;;;;;5.78;4.33;;;;;;;28.01;79.28;100802.31;5143696;55;1138968;-65
2023/08/15 07:58:10;;;;;;;8.48;4.37;;;;;;;28.03;78.12;100810.25;5037752;56;1139184;-65
2023/08/15 08:03:16;;;;;;;4.95;4.42;;;;;;;28.24;77.35;100813.38;5017398;55;1138794;-65
2023/08/15 08:08:22;;;;;;;6.83;4.90;;;;;;;28.47;79.77;100806.39;5065197;56;1138939;-65
2023/08/15 08:13:27;;;;;;;8.28;4.28;;;;;;;28.65;77.76;100798.19;5004679;56;1138826;-65
2023/08/15 08:18:33;;;;;;;10.98;4.70;;;;;;;28.78;74.93;100801.25;5045901;55;1138703;-65
2023/08/15 08:23:38;;;;;;;12.93;4.47;;;;;;;28.84;74.87;100797.64;5044062;56;1140968;-64
2023/08/15 08:28:44;;;;;;;11.08;4.40;;;;;;;29.01;75.95;100795.92;5067934;56;1141081;-64
2023/08/15 08:33:49;;;;;;;7.63;4.23;;;;;;;29.24;76.20;100786.94;5049436;56;1141021;-64
2023/08/15 08:38:55;;;;;;;4.50;3.97;;;;;;;29.39;73.06;100771.82;5050114;56;1139224;-65
2023/08/15 08:44:02;;;;;;;8.00;4.12;;;;;;;29.46;70.52;100776.34;5144097;55;1138762;-65
2023/08/15 08:49:09;;;;;;;8.63;4.28;;;;;;;29.65;73.99;100780.58;5127008;56;1138659;-64
2023/08/15 08:54:15;;;;;;;13.58;4.92;;;;;;;29.78;72.28;100776.80;5070674;55;1138605;-64
2023/08/15 08:59:24;;;;;;;4.55;3.55;;;;;;;29.94;70.24;100770.61;5131415;55;1140681;-64
2023/08/15 09:04:30;;;;;;;5.08;3.65;;;;;;;30.02;70.36;100777.07;5092422;55;1138842;-64
2023/08/15 09:09:36;;;;;;;7.70;3.95;;;;;;;30.14;67.35;100767.48;5121087;55;1138961;-64
2023/08/15 09:14:42;;;;;;;6.13;4.50;;;;;;;30.14;65.85;100771.58;5083847;56;1138725;-65
2023/08/15 09:19:48;;;;;;;9.68;3.92;;;;;;;30.16;67.82;100769.44;5133467;55;1138921;-66
2023/08/15 09:24:53;;;;;;;9.13;3.60;;;;;;;30.26;65.70;100773.20;5025017;55;1138803;-65
2023/08/15 09:30:00;;;;;;;11.27;4.43;;;;;;;30.42;66.67;100781.98;5110498;55;1138633;-65
2023/08/15 09:35:08;;;;;;;8.73;3.87;;;;;;;30.62;63.41;100778.02;5111100;56;1140867;-64
2023/08/15 09:40:17;;;;;;;4.15;3.50;;;;;;;30.73;63.15;100776.59;5113095;54;1138951;-65
2023/08/15 09:45:23;;;;;;;8.98;3.20;;;;;;;30.80;61.87;100764.70;5024256;56;1138693;-65
2023/08/15 09:50:30;;;;;;;5.25;4.08;;;;;;;30.90;63.94;100768.42;5128617;56;1138830;-65
2023/08/15 09:55:37;;;;;;;9.55;3.80;;;;;;;31.02;62.90;100777.91;5033310;56;1138866;-65
2023/08/15 10:00:43;;;;;;;17.83;3.77;;;;;;;31.13;61.20;100772.13;5031144;56;1139016;-66
2023/08/15 10:05:53;;;;;;;10.38;3.85;;;;;;;31.16;61.20;100775.73;5098932;56;1141065;-65
2023/08/15 10:11:00;;;;;;;8.63;4.22;;;;;;;31.32;62.34;100779.00;5096318;55;1141185;-64
2023/08/15 10:16:10;;;;;;;5.67;3.42;;;;;;;31.37;60.08;100784.53;5104317;55;1138652;-65
2023/08/15 10:21:15;;;;;;;5.23;4.07;;;;;;;31.54;62.50;100783.14;5147586;55;1138839;-65
2023/08/15 10:26:21;;;;;;;10.30;4.08;;;;;;;31.54;60.83;100778.50;5199335;55;1138683;-65
2023/08/15 10:31:39;;;;;;;7.65;4.03;;;;;;;31.66;60.33;100773.78;5166952;55;1140769;-65
2023/08/15 10:36:46;;;;;;;9.05;3.60;;;;;;;31.78;60.29;100777.77;5169177;55;1138615;-65
2023/08/15 10:41:52;;;;;;;4.85;3.42;;;;;;;31.98;60.50;100767.65;5189965;54;1138782;-65
2023/08/15 10:46:58;;;;;;;11.22;3.70;;;;;;;32.11;60.17;100776.30;5199675;55;1138846;-64
2023/08/15 10:52:04;;;;;;;6.67;3.30;;;;;;;32.15;59.66;100774.72;5112220;56;1140872;-65
2023/08/15 10:57:11;;;;;;;6.08;3.65;;;;;;;32.36;59.93;100773.09;5103489;55;1139003;-65
2023/08/15 11:02:17;;;;;;;4.80;3.22;;;;;;;32.42;58.30;100780.25;5097097;55;1138866;-65
2023/08/15 11:07:27;;;;;;;6.72;3.62;;;;;;;32.53;55.58;100779.02;5029329;57;1138655;-65
2023/08/15 11:12:33;;;;;;;9.53;3.42;;;;;;;32.58;54.49;100789.47;5071343;55;1139168;-65
2023/08/15 11:17:39;;;;;;;3.12;2.92;;;;;;;32.72;55.04;100789.87;5188584;55;1138616;-65
2023/08/15 11:22:48;;;;;;;4.17;3.35;;;;;;;32.78;52.98;100784.77;5200133;55;1138751;-65
2023/08/15 11:27:53;;;;;;;9.93;3.53;;;;;;;32.87;53.19;100784.58;5163312;55;1138845;-65
2023/08/15 11:32:59;;;;;;;7.22;3.62;;;;;;;32.99;53.53;100777.58;5189713;55;1138820;-65
2023/08/15 11:38:08;;;;;;;3.87;3.45;;;;;;;33.19;54.86;100779.09;5187735;55;1138600;-65
2023/08/15 11:43:32;;;;;;;6.95;3.12;;;;;;;33.31;52.47;100767.42;5198022;55;1138737;-64
2023/08/15 11:48:38;;;;;;;3.15;2.87;;;;;;;33.42;52.15;100761.48;5149484;55;1139025;-65
2023/08/15 11:53:53;;;;;;;2.92;2.70;;;;;;;33.46;50.19;100755.73;5200227;54;1138778;-66
2023/08/15 11:59:02;;;;;;;5.10;3.20;;;;;;;33.53;49.43;100754.97;5088104;55;1138528;-65
2023/08/15 12:04:08;;;;;;;5.65;3.67;;;;;;;33.63;50.49;100748.16;5048153;56;1138798;-65
2023/08/15 12:09:14;;;;;;;4.40;2.87;;;;;;;33.82;50.92;100748.03;5057610;56;1138670;-65
2023/08/15 12:14:23;;;;;;;9.90;2.67;;;;;;;33.98;48.66;100739.86;5184267;54;1138938;-65
2023/08/15 12:19:29;;;;;;;5.83;2.70;;;;;;;34.05;46.08;100737.16;5237889;54;1138667;-65
2023/08/15 12:24:34;;;;;;;2.70;2.40;;;;;;;34.07;44.84;100737.69;5236817;54;1138714;-65
2023/08/15 12:29:40;;;;;;;3.85;2.90;;;;;;;34.15;42.53;100728.95;5270551;54;1138869;-65
2023/08/15 12:34:46;;;;;;;4.62;2.95;;;;;;;34.26;43.99;100721.55;5211743;54;1138839;-65
2023/08/15 12:39:51;;;;;;;3.15;2.77;;;;;;;34.40;44.01;100724.09;5196306;54;1138903;-66
2023/08/15 12:44:57;;;;;;;3.27;2.98;;;;;;;34.53;42.69;100728.22;5190269;54;1138738;-65
2023/08/15 12:50:03;;;;;;;13.53;3.02;;;;;;;34.69;43.29;100721.64;5168204;55;1138922;-65
2023/08/15 12:55:09;;;;;;;11.30;3.30;;;;;;;34.75;41.35;100727.44;5184265;55;1141060;-64
2023/08/15 13:00:16;;;;;;;6.17;3.47;;;;;;;34.81;42.62;100723.63;5259937;54;1140963;-64
2023/08/15 13:05:22;;;;;;;3.75;2.90;;;;;;;34.91;43.33;100717.30;5237613;54;1138852;-65
2023/08/15 13:10:27;;;;;;;5.25;4.20;;;;;;;34.98;41.95;100717.86;5231128;54;1139072;-65
2023/08/15 13:15:33;;;;;;;8.88;2.92;;;;;;;34.87;39.51;100717.56;5258191;54;1139240;-64
2023/08/15 13:20:39;;;;;;;2.95;2.75;;;;;;;34.74;40.75;100712.05;5268433;54;1138699;-64
2023/08/15 13:25:45;;;;;;;8.75;2.98;;;;;;;34.76;40.46;100720.84;5241276;54;1146664;-65
2023/08/15 13:30:51;;;;;;;7.50;2.75;;;;;;;34.93;38.36;100708.78;5257259;54;1138803;-65
2023/08/15 13:35:57;;;;;;;6.05;2.62;;;;;;;35.01;38.88;100719.20;5240465;54;1138674;-65
2023/08/15 13:41:03;;;;;;;5.37;2.98;;;;;;;35.07;39.53;100719.48;5213109;54;1138966;-65
2023/08/15 13:46:11;;;;;;;4.97;3.50;;;;;;;35.13;38.46;100723.89;5174611;55;1138772;-66
2023/08/15 13:51:19;;;;;;;4.95;3.65;;;;;;;35.22;39.34;100720.30;5204870;55;1138428;-65
2023/08/15 13:56:27;;;;;;;7.35;3.40;;;;;;;35.19;38.86;100709.84;5236385;54;1138551;-65
2023/08/15 14:01:33;;;;;;;8.00;2.60;;;;;;;35.13;38.17;100706.84;5252404;54;1138660;-65
2023/08/15 14:06:38;;;;;;;5.28;2.62;;;;;;;35.14;36.00;100719.47;5252019;54;1138706;-65
2023/08/15 14:11:45;;;;;;;7.03;2.30;;;;;;;35.18;36.80;100712.87;5239894;54;1139162;-65
2023/08/15 14:16:52;;;;;;;3.20;2.56;;;;;;;35.19;34.83;100701.59;5169897;55;1138780;-65
2023/08/15 14:21:58;;;;;;;8.18;2.22;;;;;;;35.10;34.76;100701.89;5255544;54;1138579;-65
2023/08/15 14:27:03;;;;;;;10.20;2.50;;;;;;;35.12;36.08;100695.58;5275124;54;1138460;-65
2023/08/15 14:32:10;;;;;;;2.58;2.37;;;;;;;35.24;35.54;100691.14;5202543;54;1140510;-65
2023/08/15 14:37:15;;;;;;;3.35;2.25;;;;;;;35.35;34.69;100686.47;5187974;55;1138580;-65
2023/08/15 14:42:21;;;;;;;3.92;2.85;;;;;;;35.23;33.63;100692.24;5190128;54;1138835;-65
2023/08/15 14:47:30;;;;;;;3.08;2.27;;;;;;;35.27;35.23;100693.38;5166944;55;1138961;-64
2023/08/15 14:52:42;;;;;;;5.42;2.42;;;;;;;35.22;35.30;100683.72;5170034;55;1138854;-65
2023/08/15 14:57:44;;;;;;;3.13;2.57;;;;;;;35.22;34.94;100680.97;5169582;55;1138647;-65
2023/08/15 15:02:50;;;;;;;2.65;2.45;;;;;;;35.31;35.23;100682.06;5189565;55;1139038;-66
2023/08/15 15:07:55;;;;;;;2.50;2.30;;;;;;;35.34;33.44;100683.44;5169476;55;1138686;-65
2023/08/15 15:13:01;;;;;;;3.43;2.70;;;;;;;35.40;33.68;100683.70;5230941;54;1138949;-67
2023/08/15 15:18:07;;;;;;;6.78;2.60;;;;;;;35.40;34.78;100675.45;5276653;54;1138771;-65
2023/08/15 15:23:13;;;;;;;2.40;2.20;;;;;;;35.43;35.26;100676.28;5258753;54;1138784;-66
2023/08/15 15:28:19;;;;;;;2.50;2.30;;;;;;;35.45;35.42;100669.37;5244671;54;1138808;-65
2023/08/15 15:33:25;;;;;;;5.00;3.12;;;;;;;35.44;33.88;100665.00;5257755;54;1138759;-66
2023/08/15 15:38:31;;;;;;;3.87;2.33;;;;;;;35.43;33.35;100671.60;5229656;54;1138728;-67
2023/08/15 15:43:38;;;;;;;1.80;1.70;;;;;;;35.33;32.31;100660.61;5243984;55;1138874;-66
2023/08/15 15:48:45;;;;;;;9.23;2.37;;;;;;;35.27;32.20;100666.42;5224061;55;1138938;-65
2023/08/15 15:53:51;;;;;;;4.55;3.27;;;;;;;35.25;33.39;100660.62;5190432;56;1138667;-66
2023/08/15 15:58:57;;;;;;;18.90;2.73;;;;;;;35.36;33.62;100656.48;5233139;54;1138634;-65
2023/08/15 16:04:02;;;;;;;3.45;2.45;;;;;;;35.39;34.18;100657.30;5256327;54;1141176;-65
2023/08/15 16:09:08;;;;;;;5.20;2.22;;;;;;;35.42;34.09;100656.20;5254158;55;1138900;-66
2023/08/15 16:14:14;;;;;;;3.52;2.62;;;;;;;35.46;34.53;100661.39;5249298;54;1138658;-65
2023/08/15 16:19:19;;;;;;;4.42;2.10;;;;;;;35.44;33.70;100657.30;5258740;54;1138933;-66
2023/08/15 16:24:25;;;;;;;7.03;2.58;;;;;;;35.41;34.16;100662.80;5291404;54;1139126;-66
2023/08/15 16:29:31;;;;;;;2.72;2.33;;;;;;;35.35;33.86;100660.33;5280289;54;1138543;-65
2023/08/15 16:34:36;;;;;;;2.83;2.40;;;;;;;35.33;33.86;100666.66;5280030;54;1138654;-65
2023/08/15 16:39:42;;;;;;;9.03;2.60;;;;;;;35.16;33.35;100669.70;5191378;54;1138945;-66
2023/08/15 16:44:47;;;;;;;6.22;2.83;;;;;;;34.97;33.48;100670.85;5155326;55;1138913;-66
2023/08/15 16:49:53;;;;;;;2.77;2.50;;;;;;;34.86;34.01;100680.19;5217665;55;1138835;-66
2023/08/15 16:54:59;;;;;;;2.83;2.10;;;;;;;34.74;34.00;100683.19;5280751;54;1138782;-65
2023/08/15 17:00:05;;;;;;;5.72;2.20;;;;;;;34.56;34.36;100669.45;5300382;54;1138666;-66
2023/08/15 17:05:11;;;;;;;4.45;2.52;;;;;;;34.50;34.34;100682.92;5280451;54;1138753;-65
2023/08/15 17:10:17;;;;;;;2.98;2.02;;;;;;;34.41;34.94;100691.41;5221989;54;1138897;-66
2023/08/15 17:15:23;;;;;;;7.90;2.50;;;;;;;34.33;35.36;100690.59;5301057;54;1138690;-66
2023/08/15 17:20:28;;;;;;;4.80;2.25;;;;;;;34.23;35.09;100700.95;5280313;54;1138848;-66
2023/08/15 17:25:34;;;;;;;4.53;2.20;;;;;;;34.13;36.38;100699.56;5280239;54;1138916;-65
2023/08/15 17:30:40;;;;;;;9.73;2.55;;;;;;;34.07;37.10;100701.21;5213638;54;1138829;-65
2023/08/15 17:35:45;;;;;;;17.02;3.20;;;;;;;33.96;37.92;100708.56;5203762;55;1138612;-65
2023/08/15 17:40:51;;;;;;;8.08;2.83;;;;;;;33.74;39.86;100716.14;5190577;55;1140978;-66
2023/08/15 17:45:57;;;;;;;12.25;4.30;;;;;;;33.53;42.16;100711.91;5190763;55;1138827;-66
2023/08/15 17:51:02;;;;;;;16.63;4.67;;;;;;;33.47;43.58;100712.14;5282533;54;1140880;-66
2023/08/15 17:56:08;;;;;;;31.05;3.58;;;;;;;33.39;44.26;100714.03;5296926;54;1140832;-65
2023/08/15 18:01:14;;;;;;;15.18;3.72;;;;;;;33.17;45.02;100714.11;5337452;54;1141113;-65
2023/08/15 18:06:20;;;;;;;7.78;3.98;;;;;;;32.97;46.06;100727.14;5358890;54;1140819;-65
2023/08/15 18:11:25;;;;;;;24.20;5.12;;;;;;;32.68;47.24;100718.91;5315092;54;1138732;-64
2023/08/15 18:16:31;;;;;;;44.27;13.18;;;;;;;32.39;48.29;100716.42;5277635;54;1140883;-65
2023/08/15 18:21:36;;;;;;;30.17;8.03;;;;;;;32.13;48.63;100721.31;5362849;54;1143408;-65
2023/08/15 18:26:44;;;;;;;21.02;6.67;;;;;;;31.85;49.55;100729.73;5367240;55;1141292;-66
2023/08/15 18:31:49;;;;;;;25.35;9.90;;;;;;;31.50;50.93;100722.66;5211762;55;1141249;-67
2023/08/15 18:36:55;;;;;;;33.80;10.45;;;;;;;31.25;52.34;100714.10;5207630;54;1140642;-65
2023/08/15 18:42:00;;;;;;;40.67;9.30;;;;;;;31.04;53.17;100722.48;5217880;54;1142882;-65
2023/08/15 18:47:06;;;;;;;30.80;7.70;;;;;;;30.86;54.45;100735.05;5190791;55;1140704;-66
2023/08/15 18:52:12;;;;;;;36.98;7.87;;;;;;;30.75;55.03;100737.58;5242405;54;1140818;-66
2023/08/15 18:57:17;;;;;;;19.06;7.90;;;;;;;30.69;56.33;100733.13;5300620;54;1141179;-64
2023/08/15 19:02:23;;;;;;;23.10;6.45;;;;;;;30.62;56.92;100738.44;5280570;54;1140831;-66
2023/08/15 19:07:29;;;;;;;55.12;7.12;;;;;;;30.53;56.54;100748.91;5252496;54;1140679;-65
2023/08/15 19:12:34;;;;;;;16.80;4.00;;;;;;;30.39;56.80;100745.64;5250763;54;1140834;-65
2023/08/15 19:17:42;;;;;;;9.50;5.12;;;;;;;30.22;57.76;100754.31;5276399;55;1140764;-65
2023/08/15 19:22:47;;;;;;;17.55;5.25;;;;;;;29.96;58.49;100745.26;5172955;55;1138952;-65
2023/08/15 19:27:53;;;;;;;11.53;5.78;;;;;;;29.84;59.25;100747.19;5204879;54;1140700;-65
2023/08/15 19:32:59;;;;;;;16.97;6.60;;;;;;;29.78;59.87;100742.72;5237497;55;1141091;-66
2023/08/15 19:38:04;;;;;;;12.15;8.00;;;;;;;29.71;59.88;100740.10;5186931;54;1141042;-65
2023/08/15 19:43:10;;;;;;;13.95;7.70;;;;;;;29.59;60.18;100742.02;5188203;55;1140549;-65
2023/08/15 19:48:15;;;;;;;11.00;6.04;;;;;;;29.46;60.75;100742.27;5257595;55;1140785;-65
2023/08/15 19:53:21;;;;;;;10.50;6.62;;;;;;;29.32;61.70;100739.76;5195303;55;1140843;-65
2023/08/15 19:58:26;;;;;;;11.83;6.77;;;;;;;29.22;62.58;100740.86;5195893;54;1140902;-65
2023/08/15 20:03:33;;;;;;;12.00;8.20;;;;;;;29.09;63.53;100737.00;5321305;54;1140687;-65
2023/08/15 20:08:38;;;;;;;10.80;6.97;;;;;;;28.96;64.33;100738.59;5242295;54;1140720;-65
2023/08/15 20:13:44;;;;;;;10.45;7.65;;;;;;;28.79;65.45;100738.44;5258383;54;1141020;-65
2023/08/15 20:18:49;;;;;;;9.48;7.10;;;;;;;28.64;66.13;100744.28;5245581;54;1141053;-65
2023/08/15 20:23:56;;;;;;;9.15;6.03;;;;;;;28.54;66.68;100754.08;5210072;55;1138708;-65
2023/08/15 20:29:02;;;;;;;11.22;6.80;;;;;;;28.31;67.10;100749.36;5186511;54;1138834;-65
2023/08/15 20:34:08;;;;;;;11.83;7.78;;;;;;;28.04;67.62;100746.65;5235785;54;1140893;-65
2023/08/15 20:39:13;;;;;;;8.85;7.42;;;;;;;27.92;68.54;100752.86;5249882;54;1140525;-65
2023/08/15 20:44:19;;;;;;;10.15;7.30;;;;;;;27.82;68.25;100756.61;5134718;55;1138753;-65
2023/08/15 20:49:25;;;;;;;12.23;5.50;;;;;;;27.74;67.34;100757.45;5189512;55;1140616;-65
2023/08/15 20:54:31;;;;;;;12.60;5.22;;;;;;;27.71;66.02;100752.46;5233772;55;1140851;-65
2023/08/15 20:59:37;;;;;;;6.12;5.10;;;;;;;27.64;64.89;100757.45;5198539;54;1140815;-65
2023/08/15 21:04:43;;;;;;;12.10;4.28;;;;;;;27.60;64.21;100762.20;5170154;54;1138741;-65
2023/08/15 21:09:48;;;;;;;10.32;4.60;;;;;;;27.61;62.53;100758.43;5277278;54;1140747;-64
2023/08/15 21:14:54;;;;;;;5.80;3.85;;;;;;;27.64;61.99;100754.73;5293876;55;1140722;-65
2023/08/15 21:20:00;;;;;;;9.43;4.12;;;;;;;27.64;61.23;100745.23;5206594;54;1138645;-64
2023/08/15 21:25:06;;;;;;;5.33;3.92;;;;;;;27.55;60.31;100735.66;5189772;55;1138872;-64
2023/08/15 21:30:12;;;;;;;4.12;3.70;;;;;;;27.51;59.67;100739.88;5169588;55;1138629;-65
2023/08/15 21:35:19;;;;;;;7.02;3.84;;;;;;;27.54;59.69;100739.95;5208287;55;1138312;-67
2023/08/15 21:40:24;;;;;;;8.95;4.78;;;;;;;27.57;59.03;100738.19;5194358;55;1138873;-64
2023/08/15 21:45:30;;;;;;;21.23;3.90;;;;;;;27.54;58.59;100734.52;5189703;55;1138866;-64
2023/08/15 21:50:36;;;;;;;6.97;4.20;;;;;;;27.46;58.57;100734.83;5198162;55;1140950;-65
2023/08/15 21:55:42;;;;;;;4.53;4.15;;;;;;;27.38;58.50;100739.17;5201657;54;1139051;-65
2023/08/15 22:00:47;;;;;;;5.78;4.55;;;;;;;27.30;58.48;100736.23;5229977;54;1139450;-64
2023/08/15 22:05:53;;;;;;;6.37;4.42;;;;;;;27.31;58.51;100736.55;5237760;54;1139069;-65
2023/08/15 22:10:59;;;;;;;7.45;4.33;;;;;;;27.34;58.92;100732.55;5232373;54;1139189;-65
2023/08/15 22:16:04;;;;;;;10.63;4.25;;;;;;;27.31;59.21;100736.02;5229662;54;1138679;-65
2023/08/15 22:21:10;;;;;;;11.53;4.72;;;;;;;27.26;59.35;100739.09;5190423;55;1141048;-64
2023/08/15 22:26:16;;;;;;;10.65;4.20;;;;;;;27.11;59.88;100735.35;5190192;55;1141058;-65
2023/08/15 22:31:21;;;;;;;7.83;3.95;;;;;;;26.96;61.00;100730.25;5210833;55;1141034;-64
2023/08/15 22:36:28;;;;;;;5.12;4.60;;;;;;;26.82;61.83;100731.38;5189499;55;1138915;-65
2023/08/15 22:41:34;;;;;;;17.10;4.92;;;;;;;26.58;62.39;100728.12;5197481;55;1138837;-65
2023/08/15 22:46:39;;;;;;;9.40;4.57;;;;;;;26.36;63.48;100727.61;5244410;54;1140970;-65
2023/08/15 22:51:45;;;;;;;6.90;4.10;;;;;;;26.11;65.15;100728.03;5226108;55;1138839;-65
2023/08/15 22:56:50;;;;;;;5.62;4.45;;;;;;;26.11;65.15;100728.03;5201112;55;1138794;-65
2023/08/15 23:01:56;;;;;;;11.05;4.20;;;;;;;26.05;65.84;100726.16;5201532;55;1138917;-64